createdAt,value
2023-05-09T00:04:50.215Z,17.29
2023-05-09T00:07:17.781Z,17.33
2023-05-09T00:09:45.360Z,17.24
2023-05-09T00:12:12.716Z,17.19
2023-05-09T00:14:40.798Z,17.37
2023-05-09T00:17:08.270Z,17.37
2023-05-09T00:19:35.651Z,17.34
2023-05-09T00:22:02.992Z,17.25
2023-05-09T00:24:30.365Z,17.24
2023-05-09T00:26:57.694Z,17.24
2023-05-09T00:29:25.027Z,17.20
2023-05-09T00:31:52.429Z,17.25
2023-05-09T00:34:20.047Z,17.25
2023-05-09T00:36:47.377Z,17.13
2023-05-09T00:39:14.677Z,17.01
2023-05-09T00:41:42.313Z,17.02
2023-05-09T00:44:09.752Z,17.07
2023-05-09T00:46:37.184Z,17.10
2023-05-09T00:49:05.282Z,17.06
2023-05-09T00:51:33.170Z,17.15
2023-05-09T00:54:00.683Z,17.08
2023-05-09T00:56:28.390Z,17.09
2023-05-09T00:58:55.808Z,17.05
2023-05-09T01:01:23.169Z,17.05
2023-05-09T01:03:51.471Z,17.03
2023-05-09T01:06:28.032Z,17.01
2023-05-09T01:09:45.161Z,17.05
2023-05-09T01:12:37.501Z,17.07
2023-05-09T01:15:18.585Z,17.05
2023-05-09T01:18:11.710Z,17.08
2023-05-09T01:21:08.786Z,17.20
2023-05-09T01:23:45.200Z,17.24
2023-05-09T01:26:30.913Z,17.20
2023-05-09T01:29:48.185Z,17.12
2023-05-09T01:32:24.339Z,17.06
2023-05-09T01:34:56.329Z,17.13
2023-05-09T01:37:31.930Z,17.20
2023-05-09T01:40:06.226Z,17.12
2023-05-09T01:42:45.100Z,17.05
2023-05-09T01:45:15.168Z,17.07
2023-05-09T01:47:44.193Z,17.09
2023-05-09T01:50:12.794Z,17.13
2023-05-09T01:52:42.751Z,17.20
2023-05-09T01:55:11.617Z,17.19
2023-05-09T01:57:40.591Z,17.27
2023-05-09T02:00:10.259Z,17.24
2023-05-09T02:02:45.476Z,17.12
2023-05-09T02:05:15.727Z,17.14
2023-05-09T02:07:45.199Z,17.11
2023-05-09T02:10:13.238Z,17.08
2023-05-09T02:12:40.614Z,17.12
2023-05-09T02:15:08.922Z,17.09
2023-05-09T02:18:05.441Z,17.04
2023-05-09T02:20:35.961Z,16.99
2023-05-09T02:23:03.433Z,17.07
2023-05-09T02:25:32.259Z,17.00
2023-05-09T02:28:00.709Z,16.94
2023-05-09T02:30:33.483Z,16.88
2023-05-09T02:33:05.018Z,16.93
2023-05-09T02:35:32.825Z,16.92
2023-05-09T02:38:00.800Z,17.02
2023-05-09T02:40:30.344Z,17.09
2023-05-09T02:42:57.797Z,17.06
2023-05-09T02:45:25.684Z,17.08
2023-05-09T02:47:53.286Z,17.07
2023-05-09T02:50:20.644Z,17.01
2023-05-09T02:52:47.999Z,16.96
2023-05-09T02:55:15.618Z,16.90
2023-05-09T02:57:44.238Z,16.87
2023-05-09T03:00:12.299Z,16.92
2023-05-09T03:02:39.960Z,16.94
2023-05-09T03:05:13.545Z,17.00
2023-05-09T03:07:41.551Z,16.95
2023-05-09T03:10:11.458Z,17.01
2023-05-09T03:12:39.864Z,17.07
2023-05-09T03:15:07.846Z,16.92
2023-05-09T03:17:35.956Z,16.91
2023-05-09T03:20:05.598Z,16.81
2023-05-09T03:22:32.942Z,16.85
2023-05-09T03:25:04.103Z,16.79
2023-05-09T03:27:32.581Z,16.81
2023-05-09T03:30:00.520Z,16.83
2023-05-09T03:32:27.954Z,16.94
2023-05-09T03:34:55.388Z,16.95
2023-05-09T03:37:23.969Z,16.85
2023-05-09T03:39:52.432Z,16.81
2023-05-09T03:42:20.118Z,16.81
2023-05-09T03:44:49.745Z,16.79
2023-05-09T03:47:18.211Z,16.75
2023-05-09T03:49:46.332Z,16.75
2023-05-09T03:52:15.038Z,16.77
2023-05-09T03:54:43.128Z,16.77
2023-05-09T03:57:10.622Z,16.75
2023-05-09T03:59:38.670Z,16.72
2023-05-09T04:02:06.888Z,16.74
2023-05-09T04:04:34.985Z,16.76
2023-05-09T04:07:02.835Z,16.64
2023-05-09T04:09:30.494Z,16.68
2023-05-09T04:11:57.818Z,16.71
2023-05-09T04:14:27.230Z,16.73
2023-05-09T04:16:55.198Z,16.73
2023-05-09T04:19:22.571Z,16.71
2023-05-09T04:21:49.959Z,16.87
2023-05-09T04:24:17.305Z,16.86
2023-05-09T04:26:47.580Z,16.85
2023-05-09T04:29:18.524Z,16.83
2023-05-09T04:31:51.348Z,16.79
2023-05-09T04:34:19.773Z,16.78
2023-05-09T04:36:47.212Z,16.72
2023-05-09T04:39:15.030Z,16.74
2023-05-09T04:41:52.540Z,16.76
2023-05-09T04:44:20.010Z,16.81
2023-05-09T04:46:47.309Z,16.73
2023-05-09T04:49:14.679Z,16.65
2023-05-09T04:51:42.501Z,16.66
2023-05-09T04:54:09.839Z,16.55
2023-05-09T04:56:39.040Z,16.46
2023-05-09T04:59:06.575Z,16.59
2023-05-09T05:01:34.623Z,16.53
2023-05-09T05:04:02.181Z,16.50
2023-05-09T05:06:32.067Z,16.47
2023-05-09T05:09:00.099Z,16.48
2023-05-09T05:11:27.392Z,16.43
2023-05-09T05:13:55.004Z,16.41
2023-05-09T05:16:23.227Z,16.55
2023-05-09T05:18:51.427Z,16.62
2023-05-09T05:21:20.176Z,16.51
2023-05-09T05:23:47.818Z,16.60
2023-05-09T05:26:15.960Z,16.70
2023-05-09T05:28:43.376Z,16.58
2023-05-09T05:31:11.004Z,16.51
2023-05-09T05:33:38.437Z,16.64
2023-05-09T05:36:06.791Z,16.51
2023-05-09T05:38:34.354Z,16.56
2023-05-09T05:41:01.825Z,16.58
2023-05-09T05:43:31.423Z,16.48
2023-05-09T05:45:59.058Z,16.54
2023-05-09T05:48:28.482Z,16.66
2023-05-09T05:50:57.084Z,16.65
2023-05-09T05:53:27.977Z,16.65
2023-05-09T05:55:55.609Z,16.80
2023-05-09T05:58:22.985Z,16.83
2023-05-09T06:00:52.329Z,16.77
2023-05-09T06:03:20.011Z,16.88
2023-05-09T06:06:02.598Z,16.83
2023-05-09T06:08:34.362Z,16.81
2023-05-09T06:11:02.016Z,16.69
2023-05-09T06:13:29.485Z,16.78
2023-05-09T06:16:15.055Z,16.68
2023-05-09T06:18:43.060Z,16.82
2023-05-09T06:21:10.515Z,16.75
2023-05-09T06:23:42.460Z,16.85
2023-05-09T06:26:14.930Z,16.86
2023-05-09T06:28:42.369Z,16.87
2023-05-09T06:31:09.881Z,16.95
2023-05-09T06:33:37.355Z,16.92
2023-05-09T06:36:05.088Z,16.87
2023-05-09T06:38:34.030Z,16.95
2023-05-09T06:41:01.506Z,16.99
2023-05-09T06:43:28.924Z,17.05
2023-05-09T06:45:56.405Z,17.06
2023-05-09T06:48:24.128Z,17.11
2023-05-09T06:50:51.669Z,17.12
2023-05-09T06:53:19.172Z,17.29
2023-05-09T06:55:46.748Z,17.34
2023-05-09T06:58:14.802Z,17.29
2023-05-09T07:00:42.159Z,17.39
2023-05-09T07:03:10.638Z,17.34
2023-05-09T07:05:37.993Z,17.42
2023-05-09T07:08:05.535Z,17.54
2023-05-09T07:10:33.177Z,17.55
2023-05-09T07:13:00.580Z,17.64
2023-05-09T07:15:40.394Z,17.67
2023-05-09T07:18:09.541Z,17.74
2023-05-09T07:20:37.115Z,17.70
2023-05-09T07:23:05.365Z,17.63
2023-05-09T07:25:32.978Z,17.68
2023-05-09T07:28:01.072Z,17.76
2023-05-09T07:30:28.562Z,17.76
2023-05-09T07:32:56.094Z,17.91
2023-05-09T07:35:23.658Z,17.89
2023-05-09T07:37:51.278Z,17.81
2023-05-09T07:40:19.104Z,17.88
2023-05-09T07:42:49.928Z,17.88
2023-05-09T07:45:18.782Z,17.97
2023-05-09T07:47:47.398Z,17.90
2023-05-09T07:50:14.939Z,17.95
2023-05-09T07:52:42.339Z,17.95
2023-05-09T07:55:09.972Z,17.99
2023-05-09T07:57:38.688Z,17.97
2023-05-09T08:00:07.585Z,18.14
2023-05-09T08:02:41.102Z,18.03
2023-05-09T08:05:11.499Z,17.93
2023-05-09T08:08:04.947Z,18.15
2023-05-09T08:14:15.724Z,18.23
2023-05-09T08:16:43.486Z,18.34
2023-05-09T08:19:10.992Z,18.29
2023-05-09T08:21:38.422Z,18.33
2023-05-09T08:24:08.140Z,18.24
2023-05-09T08:26:35.943Z,18.35
2023-05-09T08:29:29.872Z,18.40
2023-05-09T08:31:57.275Z,18.49
2023-05-09T08:34:24.765Z,18.43
2023-05-09T08:36:52.156Z,18.59
2023-05-09T08:39:19.562Z,18.76
2023-05-09T08:41:47.115Z,18.86
2023-05-09T08:44:14.757Z,18.82
2023-05-09T08:46:44.409Z,19.06
2023-05-09T08:49:12.188Z,19.02
2023-05-09T08:51:40.363Z,18.99
2023-05-09T08:54:07.983Z,19.09
2023-05-09T08:56:36.035Z,19.24
2023-05-09T08:59:05.842Z,19.29
2023-05-09T09:01:35.978Z,19.37
2023-05-09T09:04:07.240Z,19.33
2023-05-09T09:06:35.898Z,19.34
2023-05-09T09:09:09.131Z,19.39
2023-05-09T09:11:38.858Z,19.49
2023-05-09T09:14:13.906Z,19.42
2023-05-09T09:16:44.764Z,19.52
2023-05-09T09:19:16.721Z,19.55
2023-05-09T09:21:47.291Z,19.63
2023-05-09T09:24:21.471Z,19.64
2023-05-09T09:26:51.093Z,19.86
2023-05-09T09:29:20.655Z,20.17
2023-05-09T09:31:52.318Z,20.51
2023-05-09T09:34:22.466Z,20.85
2023-05-09T09:36:50.990Z,20.79
2023-05-09T09:39:18.337Z,20.70
2023-05-09T09:41:45.906Z,20.28
2023-05-09T09:44:18.212Z,20.43
2023-05-09T09:46:51.223Z,20.62
2023-05-09T09:49:20.817Z,20.75
2023-05-09T09:51:54.098Z,20.86
2023-05-09T09:54:21.876Z,20.65
2023-05-09T09:56:51.812Z,20.77
2023-05-09T09:59:29.116Z,20.88
2023-05-09T10:01:57.972Z,20.88
2023-05-09T10:04:31.054Z,21.03
2023-05-09T10:07:00.568Z,21.06
2023-05-09T10:09:28.287Z,20.84
2023-05-09T10:11:56.759Z,20.62
2023-05-09T10:14:26.290Z,20.60
2023-05-09T10:16:57.597Z,20.67
2023-05-09T10:19:27.217Z,20.70
2023-05-09T10:21:59.713Z,20.81
2023-05-09T10:24:48.534Z,20.95
2023-05-09T10:27:21.740Z,21.04
2023-05-09T10:30:08.556Z,21.17
2023-05-09T10:32:55.596Z,20.97
2023-05-09T10:35:28.050Z,21.03
2023-05-09T10:38:01.992Z,21.19
2023-05-09T10:40:32.400Z,21.11
2023-05-09T10:42:59.929Z,21.25
2023-05-09T10:45:27.547Z,21.20
2023-05-09T10:47:56.819Z,21.09
2023-05-09T10:50:25.035Z,21.11
2023-05-09T10:53:04.265Z,21.19
2023-05-09T10:55:48.128Z,21.10
2023-05-09T10:58:23.968Z,21.12
2023-05-09T11:00:54.230Z,21.08
2023-05-09T11:03:24.859Z,20.91
2023-05-09T11:05:55.437Z,20.85
2023-05-09T11:08:28.254Z,20.94
2023-05-09T11:10:57.459Z,20.81
2023-05-09T11:13:26.228Z,20.86
2023-05-09T11:15:53.544Z,20.82
2023-05-09T11:18:50.849Z,20.84
2023-05-09T11:21:20.388Z,20.86
2023-05-09T11:23:48.548Z,20.91
2023-05-09T11:26:16.674Z,20.70
2023-05-09T11:28:53.475Z,20.65
2023-05-09T11:31:21.030Z,20.86
2023-05-09T11:33:55.114Z,20.84
2023-05-09T11:36:33.696Z,20.68
2023-05-09T11:39:11.504Z,20.69
2023-05-09T11:41:48.882Z,20.70
2023-05-09T11:44:18.309Z,20.86
2023-05-09T11:46:46.890Z,20.85
2023-05-09T11:49:14.929Z,21.14
2023-05-09T11:51:42.613Z,21.26
2023-05-09T11:54:12.001Z,21.21
2023-05-09T11:56:42.049Z,21.08
2023-05-09T11:59:10.595Z,21.01
2023-05-09T12:01:38.026Z,21.04
2023-05-09T12:04:08.025Z,21.34
2023-05-09T12:06:35.413Z,21.57
2023-05-09T12:09:02.948Z,21.50
2023-05-09T12:11:32.480Z,21.56
2023-05-09T12:13:59.997Z,21.55
2023-05-09T12:16:27.382Z,21.40
2023-05-09T12:18:54.897Z,21.15
2023-05-09T12:21:22.446Z,21.21
2023-05-09T12:23:51.749Z,21.16
2023-05-09T12:26:22.561Z,21.12
2023-05-09T12:28:50.554Z,21.38
2023-05-09T12:31:18.583Z,21.50
2023-05-09T12:33:46.161Z,21.54
2023-05-09T12:36:13.835Z,21.43
2023-05-09T12:38:42.016Z,21.41
2023-05-09T12:41:22.386Z,21.34
2023-05-09T12:43:58.497Z,21.37
2023-05-09T12:46:25.982Z,21.30
2023-05-09T12:48:53.970Z,21.19
2023-05-09T12:51:22.212Z,21.15
2023-05-09T12:53:49.851Z,21.39
2023-05-09T12:56:19.177Z,21.35
2023-05-09T12:58:54.450Z,21.38
2023-05-09T13:01:27.389Z,21.44
2023-05-09T13:04:05.929Z,21.53
2023-05-09T13:06:34.385Z,21.60
2023-05-09T13:09:05.752Z,21.28
2023-05-09T13:11:33.425Z,21.22
2023-05-09T13:14:02.378Z,21.30
2023-05-09T13:16:29.720Z,21.30
2023-05-09T13:18:57.209Z,21.26
2023-05-09T13:21:24.581Z,21.14
2023-05-09T13:23:52.212Z,21.14
2023-05-09T13:26:19.853Z,21.26
2023-05-09T13:28:47.186Z,21.26
2023-05-09T13:31:14.729Z,21.23
2023-05-09T13:33:42.066Z,21.37
2023-05-09T13:36:09.563Z,21.25
2023-05-09T13:38:40.433Z,21.28
2023-05-09T13:41:08.625Z,21.26
2023-05-09T13:43:37.261Z,21.29
2023-05-09T13:46:05.014Z,21.24
2023-05-09T13:48:32.423Z,21.08
2023-05-09T13:51:01.160Z,20.88
2023-05-09T13:53:28.546Z,21.07
2023-05-09T13:55:55.938Z,21.12
2023-05-09T13:58:23.388Z,21.04
2023-05-09T14:00:50.722Z,20.84
2023-05-09T14:03:18.077Z,21.00
2023-05-09T14:05:45.499Z,21.02
2023-05-09T14:08:12.945Z,21.01
2023-05-09T14:10:40.271Z,21.05
2023-05-09T14:13:08.450Z,20.99
2023-05-09T14:15:35.961Z,20.83
2023-05-09T14:18:03.531Z,20.95
2023-05-09T14:20:30.968Z,20.96
2023-05-09T14:23:00.661Z,21.00
2023-05-09T14:25:28.046Z,21.01
2023-05-09T14:27:55.386Z,20.97
2023-05-09T14:30:22.987Z,21.04
2023-05-09T14:32:50.870Z,21.05
2023-05-09T14:35:18.505Z,21.03
2023-05-09T14:37:45.932Z,21.08
2023-05-09T14:40:13.515Z,21.03
2023-05-09T14:42:41.273Z,20.97
2023-05-09T14:45:12.019Z,21.27
2023-05-09T14:47:39.508Z,21.20
2023-05-09T14:50:10.061Z,21.25
2023-05-09T14:52:38.359Z,21.30
2023-05-09T14:55:07.392Z,21.17
2023-05-09T14:57:34.766Z,21.08
2023-05-09T15:02:32.444Z,20.95
2023-05-09T15:04:59.753Z,20.95
2023-05-09T15:07:27.084Z,20.79
2023-05-09T15:09:54.631Z,20.80
2023-05-09T15:12:22.103Z,20.76
2023-05-09T15:14:53.724Z,20.80
2023-05-09T15:17:22.576Z,20.89
2023-05-09T15:19:49.943Z,20.94
2023-05-09T15:22:17.275Z,20.91
2023-05-09T15:24:44.806Z,20.83
2023-05-09T15:27:12.115Z,20.82
2023-05-09T15:29:41.107Z,20.73
2023-05-09T15:32:08.526Z,20.81
2023-05-09T15:34:36.004Z,20.95
2023-05-09T15:37:03.411Z,20.97
2023-05-09T15:39:34.899Z,20.81
2023-05-09T15:42:04.305Z,20.82
2023-05-09T15:44:31.532Z,20.78
2023-05-09T15:46:58.941Z,20.89
2023-05-09T15:49:26.241Z,20.78
2023-05-09T15:51:53.611Z,20.77
2023-05-09T15:54:21.006Z,20.86
2023-05-09T15:56:48.361Z,20.95
2023-05-09T15:59:15.643Z,20.90
2023-05-09T16:01:43.134Z,20.80
2023-05-09T16:04:10.981Z,20.80
2023-05-09T16:06:38.391Z,21.07
2023-05-09T16:09:06.806Z,21.01
2023-05-09T16:11:34.227Z,20.86
2023-05-09T16:14:01.944Z,20.78
2023-05-09T16:16:29.936Z,20.63
2023-05-09T16:19:07.569Z,20.51
2023-05-09T16:21:39.445Z,20.55
2023-05-09T16:24:08.118Z,20.64
2023-05-09T16:26:36.697Z,20.39
2023-05-09T16:29:04.227Z,20.48
2023-05-09T16:31:34.826Z,20.63
2023-05-09T16:34:03.009Z,20.48
2023-05-09T16:36:32.651Z,20.46
2023-05-09T16:39:00.102Z,20.55
2023-05-09T16:41:27.483Z,20.55
2023-05-09T16:43:54.861Z,20.47
2023-05-09T16:46:22.461Z,20.39
2023-05-09T16:48:52.836Z,20.40
2023-05-09T16:51:20.235Z,20.24
2023-05-09T16:53:47.600Z,20.21
2023-05-09T16:56:15.115Z,20.21
2023-05-09T16:58:44.787Z,20.16
2023-05-09T17:01:12.423Z,20.26
2023-05-09T17:03:40.093Z,20.27
2023-05-09T17:06:07.660Z,20.22
2023-05-09T17:08:35.223Z,20.14
2023-05-09T17:11:02.624Z,20.08
2023-05-09T17:13:30.116Z,19.81
2023-05-09T17:15:57.733Z,19.81
2023-05-09T17:18:35.992Z,19.82
2023-05-09T17:21:05.277Z,19.96
2023-05-09T17:23:32.761Z,19.85
2023-05-09T17:26:00.828Z,19.93
2023-05-09T17:28:28.769Z,19.93
2023-05-09T17:30:57.602Z,19.96
2023-05-09T17:33:28.837Z,20.04
2023-05-09T17:35:57.454Z,19.91
2023-05-09T17:38:24.994Z,19.86
2023-05-09T17:40:52.734Z,19.59
2023-05-09T17:43:21.672Z,19.56
2023-05-09T17:45:51.395Z,19.56
2023-05-09T17:48:18.977Z,19.55
2023-05-09T17:50:46.342Z,19.49
2023-05-09T17:53:14.029Z,19.64
2023-05-09T17:55:41.716Z,19.56
2023-05-09T17:58:09.564Z,19.69
2023-05-09T18:00:37.603Z,19.69
2023-05-09T18:03:05.355Z,19.79
2023-05-09T18:05:32.916Z,19.76
2023-05-09T18:08:01.306Z,19.69
2023-05-09T18:10:29.780Z,19.63
2023-05-09T18:12:57.287Z,19.55
2023-05-09T18:15:26.289Z,19.59
2023-05-09T18:17:54.891Z,19.65
2023-05-09T18:20:22.444Z,19.41
2023-05-09T18:22:49.863Z,19.37
2023-05-09T18:25:17.396Z,19.44
2023-05-09T18:27:45.026Z,19.38
2023-05-09T18:30:12.828Z,19.36
2023-05-09T18:32:40.896Z,19.34
2023-05-09T18:35:08.836Z,19.28
2023-05-09T18:37:36.923Z,19.24
2023-05-09T18:40:05.449Z,19.24
2023-05-09T18:42:32.810Z,19.15
2023-05-09T18:45:00.951Z,19.04
2023-05-09T18:47:28.362Z,19.12
2023-05-09T18:49:55.664Z,19.12
2023-05-09T18:52:23.179Z,19.13
2023-05-09T18:54:50.517Z,19.01
2023-05-09T18:57:19.207Z,19.02
2023-05-09T18:59:46.701Z,19.02
2023-05-09T19:02:14.075Z,19.01
2023-05-09T19:04:41.431Z,18.94
2023-05-09T19:07:10.095Z,19.01
2023-05-09T19:09:37.582Z,18.97
2023-05-09T19:12:05.796Z,18.82
2023-05-09T19:14:33.119Z,18.88
2023-05-09T19:17:00.537Z,18.87
2023-05-09T19:19:28.661Z,18.76
2023-05-09T19:21:56.121Z,18.75
2023-05-09T19:24:23.450Z,18.73
2023-05-09T19:26:50.913Z,18.75
2023-05-09T19:29:18.428Z,18.71
2023-05-09T19:31:45.740Z,18.75
2023-05-09T19:34:13.571Z,18.77
2023-05-09T19:36:41.117Z,18.76
2023-05-09T19:39:09.059Z,18.67
2023-05-09T19:41:36.550Z,18.60
2023-05-09T19:44:04.110Z,18.63
2023-05-09T19:46:31.433Z,18.64
2023-05-09T19:48:58.886Z,18.53
2023-05-09T19:51:26.193Z,18.49
2023-05-09T19:53:53.513Z,18.52
2023-05-09T19:56:23.200Z,18.51
2023-05-09T19:58:50.635Z,18.53
2023-05-09T20:01:19.085Z,18.46
2023-05-09T20:03:47.153Z,18.38
2023-05-09T20:06:14.573Z,18.26
2023-05-09T20:08:41.886Z,18.20
2023-05-09T20:11:09.091Z,18.20
2023-05-09T20:13:36.344Z,18.10
2023-05-09T20:16:04.170Z,17.94
2023-05-09T20:18:34.545Z,17.97
2023-05-09T20:21:02.373Z,17.90
2023-05-09T20:23:30.118Z,17.74
2023-05-09T20:25:57.490Z,17.73
2023-05-09T20:28:25.193Z,17.80
2023-05-09T20:30:52.493Z,17.77
2023-05-09T20:33:19.856Z,17.77
2023-05-09T20:35:49.194Z,17.51
2023-05-09T20:38:16.728Z,17.30
2023-05-09T20:40:44.175Z,17.24
2023-05-09T20:43:11.657Z,17.09
2023-05-09T20:45:39.071Z,17.11
2023-05-09T20:48:06.681Z,17.09
2023-05-09T20:50:34.031Z,16.95
2023-05-09T20:53:01.377Z,16.90
2023-05-09T20:55:28.771Z,16.90
2023-05-09T20:57:56.128Z,16.78
2023-05-09T21:00:23.418Z,16.93
2023-05-09T21:02:50.941Z,16.97
2023-05-09T21:05:18.856Z,16.80
2023-05-09T21:07:46.113Z,16.81
2023-05-09T21:10:13.632Z,16.86
2023-05-09T21:12:45.048Z,16.80
2023-05-09T21:15:12.504Z,16.90
2023-05-09T21:17:39.893Z,16.73
2023-05-09T21:20:08.464Z,16.73
2023-05-09T21:22:35.696Z,16.79
2023-05-09T21:25:02.984Z,16.72
2023-05-09T21:27:31.365Z,16.73
2023-05-09T21:29:58.794Z,16.75
2023-05-09T21:32:26.145Z,16.78
2023-05-09T21:34:53.725Z,16.74
2023-05-09T21:37:21.042Z,16.67
2023-05-09T21:39:48.320Z,16.72
2023-05-09T21:42:15.811Z,16.67
2023-05-09T21:44:43.128Z,16.64
2023-05-09T21:47:11.634Z,16.66
2023-05-09T21:49:38.963Z,16.62
2023-05-09T21:52:06.311Z,16.56
2023-05-09T21:54:33.648Z,16.70
2023-05-09T21:57:00.891Z,16.71
2023-05-09T21:59:28.108Z,16.72
2023-05-09T22:01:55.363Z,16.72
2023-05-09T22:04:22.648Z,16.63
2023-05-09T22:06:49.854Z,16.62
2023-05-09T22:09:17.362Z,16.54
2023-05-09T22:11:44.622Z,16.58
2023-05-09T22:14:12.394Z,16.57
2023-05-09T22:16:39.767Z,16.51
2023-05-09T22:19:07.076Z,16.50
2023-05-09T22:21:34.471Z,16.43
2023-05-09T22:24:01.815Z,16.41
2023-05-09T22:26:29.152Z,16.47
2023-05-09T22:28:56.391Z,16.54
2023-05-09T22:31:23.703Z,16.50
2023-05-09T22:33:51.228Z,16.48
2023-05-09T22:36:18.590Z,16.50
2023-05-09T22:38:46.079Z,16.55
2023-05-09T22:41:14.169Z,16.58
2023-05-09T22:43:41.625Z,16.53
2023-05-09T22:46:09.037Z,16.61
2023-05-09T22:48:36.496Z,16.67
2023-05-09T22:51:03.945Z,16.59
2023-05-09T22:53:31.385Z,16.69
2023-05-09T22:55:58.793Z,16.60
2023-05-09T22:58:26.485Z,16.61
2023-05-09T23:00:53.931Z,16.54
2023-05-09T23:03:21.756Z,16.60
2023-05-09T23:05:49.175Z,16.55
2023-05-09T23:08:16.600Z,16.59
2023-05-09T23:10:44.102Z,16.46
2023-05-09T23:13:12.333Z,16.46
2023-05-09T23:15:39.809Z,16.58
2023-05-09T23:18:07.264Z,16.59
2023-05-09T23:20:36.063Z,16.58
2023-05-09T23:23:03.673Z,16.59
2023-05-09T23:25:30.981Z,16.63
2023-05-09T23:27:58.438Z,16.68
2023-05-09T23:30:25.747Z,16.76
2023-05-09T23:32:53.160Z,16.83
2023-05-09T23:35:21.278Z,16.86
2023-05-09T23:37:48.692Z,16.78
2023-05-09T23:40:16.150Z,16.68
2023-05-09T23:42:43.747Z,16.61
2023-05-09T23:45:11.325Z,16.64
2023-05-09T23:47:38.733Z,16.59
2023-05-09T23:50:06.906Z,16.63
2023-05-09T23:52:34.229Z,16.58
2023-05-09T23:55:01.752Z,16.56
2023-05-09T23:57:29.226Z,16.53
2023-05-09T23:59:56.540Z,16.51
